sensor_id;sensor_type;location;lat;lon;timestamp;P1;durP1;ratioP1;P2;durP2;ratioP2
5060;SDS011;2549;52.128;21.068;2024-03-02T00:00:20;40.10;;;20.90;;
5060;SDS011;2549;52.128;21.068;2024-03-02T00:02:49;33.47;;;19.60;;
5060;SDS011;2549;52.128;21.068;2024-03-02T00:05:19;43.80;;;21.70;;
5060;SDS011;2549;52.128;21.068;2024-03-02T00:07:52;37.27;;;21.10;;
5060;SDS011;2549;52.128;21.068;2024-03-02T00:10:25;41.90;;;21.27;;
5060;SDS011;2549;52.128;21.068;2024-03-02T00:12:56;34.00;;;19.40;;
5060;SDS011;2549;52.128;21.068;2024-03-02T00:18:02;35.67;;;18.97;;
5060;SDS011;2549;52.128;21.068;2024-03-02T00:20:31;31.40;;;18.60;;
5060;SDS011;2549;52.128;21.068;2024-03-02T00:23:04;39.27;;;21.30;;
5060;SDS011;2549;52.128;21.068;2024-03-02T00:25:37;35.03;;;18.80;;
5060;SDS011;2549;52.128;21.068;2024-03-02T00:28:31;37.90;;;18.97;;
5060;SDS011;2549;52.128;21.068;2024-03-02T00:31:07;33.53;;;20.17;;
5060;SDS011;2549;52.128;21.068;2024-03-02T00:33:35;38.83;;;20.27;;
5060;SDS011;2549;52.128;21.068;2024-03-02T00:36:11;31.57;;;19.27;;
5060;SDS011;2549;52.128;21.068;2024-03-02T00:38:44;41.17;;;20.23;;
5060;SDS011;2549;52.128;21.068;2024-03-02T00:41:20;37.38;;;18.95;;
5060;SDS011;2549;52.128;21.068;2024-03-02T00:43:58;34.43;;;18.80;;
5060;SDS011;2549;52.128;21.068;2024-03-02T00:46:31;32.73;;;18.80;;
5060;SDS011;2549;52.128;21.068;2024-03-02T00:49:01;37.63;;;18.87;;
5060;SDS011;2549;52.128;21.068;2024-03-02T00:51:31;31.98;;;18.40;;
5060;SDS011;2549;52.128;21.068;2024-03-02T00:54:04;31.60;;;19.30;;
5060;SDS011;2549;52.128;21.068;2024-03-02T00:56:32;32.30;;;20.60;;
5060;SDS011;2549;52.128;21.068;2024-03-02T00:59:01;35.60;;;19.20;;
5060;SDS011;2549;52.128;21.068;2024-03-02T01:01:28;35.03;;;18.80;;
5060;SDS011;2549;52.128;21.068;2024-03-02T01:03:55;37.53;;;20.33;;
5060;SDS011;2549;52.128;21.068;2024-03-02T01:06:22;37.10;;;20.63;;
5060;SDS011;2549;52.128;21.068;2024-03-02T01:08:50;37.47;;;21.08;;
5060;SDS011;2549;52.128;21.068;2024-03-02T01:11:19;32.75;;;18.38;;
5060;SDS011;2549;52.128;21.068;2024-03-02T01:13:49;34.77;;;20.13;;
5060;SDS011;2549;52.128;21.068;2024-03-02T01:16:16;35.33;;;19.83;;
5060;SDS011;2549;52.128;21.068;2024-03-02T01:18:43;33.40;;;19.47;;
5060;SDS011;2549;52.128;21.068;2024-03-02T01:21:10;34.57;;;19.87;;
5060;SDS011;2549;52.128;21.068;2024-03-02T01:23:38;38.57;;;20.33;;
5060;SDS011;2549;52.128;21.068;2024-03-02T01:26:05;35.17;;;19.30;;
5060;SDS011;2549;52.128;21.068;2024-03-02T01:28:32;34.05;;;19.60;;
5060;SDS011;2549;52.128;21.068;2024-03-02T01:30:59;39.10;;;20.47;;
5060;SDS011;2549;52.128;21.068;2024-03-02T01:33:28;37.83;;;19.50;;
5060;SDS011;2549;52.128;21.068;2024-03-02T01:35:55;44.92;;;19.38;;
5060;SDS011;2549;52.128;21.068;2024-03-02T01:38:22;37.87;;;18.53;;
5060;SDS011;2549;52.128;21.068;2024-03-02T01:40:49;33.67;;;18.33;;
5060;SDS011;2549;52.128;21.068;2024-03-02T01:43:16;36.77;;;18.90;;
5060;SDS011;2549;52.128;21.068;2024-03-02T01:45:43;38.47;;;21.50;;
5060;SDS011;2549;52.128;21.068;2024-03-02T01:48:10;33.08;;;18.92;;
5060;SDS011;2549;52.128;21.068;2024-03-02T01:50:37;35.70;;;19.17;;
5060;SDS011;2549;52.128;21.068;2024-03-02T01:53:04;33.50;;;19.47;;
5060;SDS011;2549;52.128;21.068;2024-03-02T01:55:30;36.23;;;18.70;;
5060;SDS011;2549;52.128;21.068;2024-03-02T01:57:57;36.63;;;19.52;;
5060;SDS011;2549;52.128;21.068;2024-03-02T02:00:25;35.55;;;18.52;;
5060;SDS011;2549;52.128;21.068;2024-03-02T02:02:53;28.10;;;17.00;;
5060;SDS011;2549;52.128;21.068;2024-03-02T02:05:21;36.30;;;19.75;;
5060;SDS011;2549;52.128;21.068;2024-03-02T02:07:48;33.97;;;19.65;;
5060;SDS011;2549;52.128;21.068;2024-03-02T02:10:15;32.10;;;18.23;;
5060;SDS011;2549;52.128;21.068;2024-03-02T02:12:42;37.70;;;20.97;;
5060;SDS011;2549;52.128;21.068;2024-03-02T02:15:43;34.78;;;19.20;;
5060;SDS011;2549;52.128;21.068;2024-03-02T02:18:03;31.60;;;18.90;;
5060;SDS011;2549;52.128;21.068;2024-03-02T02:20:30;33.83;;;19.52;;
5060;SDS011;2549;52.128;21.068;2024-03-02T02:23:01;31.33;;;17.50;;
5060;SDS011;2549;52.128;21.068;2024-03-02T02:25:29;36.92;;;20.10;;
5060;SDS011;2549;52.128;21.068;2024-03-02T02:27:56;33.58;;;19.00;;
5060;SDS011;2549;52.128;21.068;2024-03-02T02:30:26;32.63;;;17.87;;
5060;SDS011;2549;52.128;21.068;2024-03-02T02:32:55;36.03;;;19.45;;
5060;SDS011;2549;52.128;21.068;2024-03-02T02:35:22;34.22;;;19.38;;
5060;SDS011;2549;52.128;21.068;2024-03-02T02:37:50;32.00;;;18.93;;
5060;SDS011;2549;52.128;21.068;2024-03-02T02:40:19;39.30;;;20.42;;
5060;SDS011;2549;52.128;21.068;2024-03-02T02:42:46;34.95;;;18.58;;
5060;SDS011;2549;52.128;21.068;2024-03-02T02:45:14;32.83;;;19.63;;
5060;SDS011;2549;52.128;21.068;2024-03-02T02:47:42;32.83;;;19.40;;
5060;SDS011;2549;52.128;21.068;2024-03-02T02:50:10;30.33;;;17.92;;
5060;SDS011;2549;52.128;21.068;2024-03-02T02:52:38;31.90;;;18.20;;
5060;SDS011;2549;52.128;21.068;2024-03-02T02:55:07;33.77;;;18.77;;
5060;SDS011;2549;52.128;21.068;2024-03-02T02:57:35;29.33;;;17.00;;
5060;SDS011;2549;52.128;21.068;2024-03-02T03:00:06;31.40;;;18.20;;
5060;SDS011;2549;52.128;21.068;2024-03-02T03:02:41;30.83;;;18.02;;
5060;SDS011;2549;52.128;21.068;2024-03-02T03:05:09;35.88;;;19.08;;
5060;SDS011;2549;52.128;21.068;2024-03-02T03:07:37;31.55;;;18.85;;
5060;SDS011;2549;52.128;21.068;2024-03-02T03:10:06;26.25;;;16.38;;
5060;SDS011;2549;52.128;21.068;2024-03-02T03:12:34;28.60;;;17.90;;
5060;SDS011;2549;52.128;21.068;2024-03-02T03:15:01;30.15;;;17.65;;
5060;SDS011;2549;52.128;21.068;2024-03-02T03:17:30;29.33;;;17.88;;
5060;SDS011;2549;52.128;21.068;2024-03-02T03:19:57;36.70;;;17.42;;
5060;SDS011;2549;52.128;21.068;2024-03-02T03:22:24;29.17;;;16.50;;
5060;SDS011;2549;52.128;21.068;2024-03-02T03:24:51;32.40;;;19.80;;
5060;SDS011;2549;52.128;21.068;2024-03-02T03:27:19;29.60;;;17.47;;
5060;SDS011;2549;52.128;21.068;2024-03-02T03:29:48;36.73;;;17.67;;
5060;SDS011;2549;52.128;21.068;2024-03-02T03:32:15;31.47;;;18.17;;
5060;SDS011;2549;52.128;21.068;2024-03-02T03:34:43;31.87;;;19.03;;
5060;SDS011;2549;52.128;21.068;2024-03-02T03:37:10;26.80;;;17.33;;
5060;SDS011;2549;52.128;21.068;2024-03-02T03:39:36;30.92;;;18.25;;
5060;SDS011;2549;52.128;21.068;2024-03-02T03:42:03;27.23;;;18.20;;
5060;SDS011;2549;52.128;21.068;2024-03-02T03:44:30;34.50;;;19.07;;
5060;SDS011;2549;52.128;21.068;2024-03-02T03:46:57;31.45;;;17.75;;
5060;SDS011;2549;52.128;21.068;2024-03-02T03:49:24;30.00;;;17.73;;
5060;SDS011;2549;52.128;21.068;2024-03-02T03:51:51;29.80;;;18.33;;
5060;SDS011;2549;52.128;21.068;2024-03-02T03:54:18;33.57;;;18.83;;
5060;SDS011;2549;52.128;21.068;2024-03-02T03:56:45;30.42;;;17.25;;
5060;SDS011;2549;52.128;21.068;2024-03-02T03:59:12;41.85;;;21.23;;
5060;SDS011;2549;52.128;21.068;2024-03-02T04:01:39;27.97;;;16.77;;
5060;SDS011;2549;52.128;21.068;2024-03-02T04:04:06;33.50;;;19.37;;
5060;SDS011;2549;52.128;21.068;2024-03-02T04:06:33;33.10;;;18.33;;
5060;SDS011;2549;52.128;21.068;2024-03-02T04:09:00;31.55;;;18.35;;
5060;SDS011;2549;52.128;21.068;2024-03-02T04:11:27;31.15;;;18.65;;
5060;SDS011;2549;52.128;21.068;2024-03-02T04:13:54;33.03;;;18.60;;
5060;SDS011;2549;52.128;21.068;2024-03-02T04:16:24;30.95;;;18.80;;
5060;SDS011;2549;52.128;21.068;2024-03-02T04:18:50;34.22;;;19.13;;
5060;SDS011;2549;52.128;21.068;2024-03-02T04:21:17;35.20;;;19.13;;
5060;SDS011;2549;52.128;21.068;2024-03-02T04:23:44;36.33;;;19.95;;
5060;SDS011;2549;52.128;21.068;2024-03-02T04:26:11;34.35;;;18.60;;
5060;SDS011;2549;52.128;21.068;2024-03-02T04:28:38;36.20;;;19.52;;
5060;SDS011;2549;52.128;21.068;2024-03-02T04:31:05;30.97;;;17.90;;
5060;SDS011;2549;52.128;21.068;2024-03-02T04:33:32;34.42;;;20.23;;
5060;SDS011;2549;52.128;21.068;2024-03-02T04:35:59;30.83;;;18.02;;
5060;SDS011;2549;52.128;21.068;2024-03-02T04:38:26;35.67;;;21.70;;
5060;SDS011;2549;52.128;21.068;2024-03-02T04:40:52;35.80;;;20.70;;
5060;SDS011;2549;52.128;21.068;2024-03-02T04:43:20;39.42;;;18.90;;
5060;SDS011;2549;52.128;21.068;2024-03-02T04:45:46;35.80;;;20.38;;
5060;SDS011;2549;52.128;21.068;2024-03-02T04:48:14;44.38;;;19.65;;
5060;SDS011;2549;52.128;21.068;2024-03-02T04:50:41;38.30;;;20.88;;
5060;SDS011;2549;52.128;21.068;2024-03-02T04:53:07;42.65;;;19.92;;
5060;SDS011;2549;52.128;21.068;2024-03-02T04:55:34;31.35;;;18.58;;
5060;SDS011;2549;52.128;21.068;2024-03-02T04:58:01;32.25;;;18.80;;
5060;SDS011;2549;52.128;21.068;2024-03-02T05:00:28;36.30;;;19.77;;
5060;SDS011;2549;52.128;21.068;2024-03-02T05:02:55;34.13;;;18.20;;
5060;SDS011;2549;52.128;21.068;2024-03-02T05:05:22;28.75;;;16.75;;
5060;SDS011;2549;52.128;21.068;2024-03-02T05:07:49;35.35;;;18.17;;
5060;SDS011;2549;52.128;21.068;2024-03-02T05:10:16;31.88;;;17.40;;
5060;SDS011;2549;52.128;21.068;2024-03-02T05:12:43;29.00;;;17.60;;
5060;SDS011;2549;52.128;21.068;2024-03-02T05:15:13;29.17;;;17.38;;
5060;SDS011;2549;52.128;21.068;2024-03-02T05:17:41;36.67;;;17.83;;
5060;SDS011;2549;52.128;21.068;2024-03-02T05:20:12;32.88;;;15.75;;
5060;SDS011;2549;52.128;21.068;2024-03-02T05:22:39;32.35;;;17.73;;
5060;SDS011;2549;52.128;21.068;2024-03-02T05:25:06;28.05;;;16.75;;
5060;SDS011;2549;52.128;21.068;2024-03-02T05:27:33;30.35;;;16.05;;
5060;SDS011;2549;52.128;21.068;2024-03-02T05:30:00;29.30;;;16.75;;
5060;SDS011;2549;52.128;21.068;2024-03-02T05:32:28;28.30;;;17.33;;
5060;SDS011;2549;52.128;21.068;2024-03-02T05:34:55;30.75;;;15.50;;
5060;SDS011;2549;52.128;21.068;2024-03-02T05:37:22;33.92;;;18.35;;
5060;SDS011;2549;52.128;21.068;2024-03-02T05:39:49;27.63;;;16.00;;
5060;SDS011;2549;52.128;21.068;2024-03-02T05:42:16;28.23;;;17.17;;
5060;SDS011;2549;52.128;21.068;2024-03-02T05:44:45;30.25;;;16.63;;
5060;SDS011;2549;52.128;21.068;2024-03-02T05:47:13;30.30;;;15.85;;
5060;SDS011;2549;52.128;21.068;2024-03-02T05:49:40;35.53;;;16.25;;
5060;SDS011;2549;52.128;21.068;2024-03-02T05:52:06;30.58;;;15.88;;
5060;SDS011;2549;52.128;21.068;2024-03-02T05:54:33;28.83;;;15.88;;
5060;SDS011;2549;52.128;21.068;2024-03-02T05:57:00;29.15;;;15.48;;
5060;SDS011;2549;52.128;21.068;2024-03-02T05:59:43;32.25;;;17.45;;
5060;SDS011;2549;52.128;21.068;2024-03-02T06:02:10;30.70;;;15.50;;
5060;SDS011;2549;52.128;21.068;2024-03-02T06:04:37;30.85;;;15.80;;
5060;SDS011;2549;52.128;21.068;2024-03-02T06:07:04;25.75;;;15.23;;
5060;SDS011;2549;52.128;21.068;2024-03-02T06:09:31;31.40;;;16.90;;
5060;SDS011;2549;52.128;21.068;2024-03-02T06:11:58;30.73;;;16.33;;
5060;SDS011;2549;52.128;21.068;2024-03-02T06:14:25;29.50;;;14.95;;
5060;SDS011;2549;52.128;21.068;2024-03-02T06:16:52;26.75;;;15.48;;
5060;SDS011;2549;52.128;21.068;2024-03-02T06:19:19;33.77;;;16.60;;
5060;SDS011;2549;52.128;21.068;2024-03-02T06:21:46;28.30;;;17.52;;
5060;SDS011;2549;52.128;21.068;2024-03-02T06:24:13;27.25;;;17.40;;
5060;SDS011;2549;52.128;21.068;2024-03-02T06:26:40;33.63;;;17.83;;
5060;SDS011;2549;52.128;21.068;2024-03-02T06:29:07;31.88;;;16.90;;
5060;SDS011;2549;52.128;21.068;2024-03-02T06:31:34;29.50;;;16.30;;
5060;SDS011;2549;52.128;21.068;2024-03-02T06:34:01;29.35;;;17.80;;
5060;SDS011;2549;52.128;21.068;2024-03-02T06:36:30;28.60;;;15.43;;
5060;SDS011;2549;52.128;21.068;2024-03-02T06:38:57;33.88;;;18.30;;
5060;SDS011;2549;52.128;21.068;2024-03-02T06:41:24;26.77;;;15.23;;
5060;SDS011;2549;52.128;21.068;2024-03-02T06:43:51;29.90;;;15.30;;
5060;SDS011;2549;52.128;21.068;2024-03-02T06:46:25;29.70;;;15.38;;
5060;SDS011;2549;52.128;21.068;2024-03-02T06:48:52;30.55;;;15.82;;
5060;SDS011;2549;52.128;21.068;2024-03-02T06:51:19;41.28;;;16.15;;
5060;SDS011;2549;52.128;21.068;2024-03-02T06:53:46;30.13;;;15.70;;
5060;SDS011;2549;52.128;21.068;2024-03-02T06:56:13;35.17;;;15.48;;
5060;SDS011;2549;52.128;21.068;2024-03-02T06:58:40;21.67;;;13.40;;
5060;SDS011;2549;52.128;21.068;2024-03-02T07:01:09;32.08;;;15.00;;
5060;SDS011;2549;52.128;21.068;2024-03-02T07:03:36;28.30;;;16.38;;
5060;SDS011;2549;52.128;21.068;2024-03-02T07:06:03;29.05;;;13.98;;
5060;SDS011;2549;52.128;21.068;2024-03-02T07:08:30;29.13;;;14.90;;
5060;SDS011;2549;52.128;21.068;2024-03-02T07:10:57;28.00;;;14.93;;
5060;SDS011;2549;52.128;21.068;2024-03-02T07:13:24;25.55;;;14.18;;
5060;SDS011;2549;52.128;21.068;2024-03-02T07:15:51;26.27;;;15.10;;
5060;SDS011;2549;52.128;21.068;2024-03-02T07:18:31;28.88;;;12.50;;
5060;SDS011;2549;52.128;21.068;2024-03-02T07:20:58;24.93;;;13.67;;
5060;SDS011;2549;52.128;21.068;2024-03-02T07:23:27;31.47;;;13.90;;
5060;SDS011;2549;52.128;21.068;2024-03-02T07:25:54;25.52;;;13.52;;
5060;SDS011;2549;52.128;21.068;2024-03-02T07:28:25;30.63;;;14.90;;
5060;SDS011;2549;52.128;21.068;2024-03-02T07:31:00;26.87;;;13.47;;
5060;SDS011;2549;52.128;21.068;2024-03-02T07:33:28;26.10;;;13.73;;
5060;SDS011;2549;52.128;21.068;2024-03-02T07:35:55;26.17;;;13.65;;
5060;SDS011;2549;52.128;21.068;2024-03-02T07:38:22;26.63;;;13.53;;
5060;SDS011;2549;52.128;21.068;2024-03-02T07:40:49;31.63;;;14.10;;
5060;SDS011;2549;52.128;21.068;2024-03-02T07:43:19;22.05;;;14.32;;
5060;SDS011;2549;52.128;21.068;2024-03-02T07:45:47;33.05;;;14.02;;
5060;SDS011;2549;52.128;21.068;2024-03-02T07:48:14;23.87;;;11.97;;
5060;SDS011;2549;52.128;21.068;2024-03-02T07:50:41;25.37;;;13.60;;
5060;SDS011;2549;52.128;21.068;2024-03-02T07:53:09;31.03;;;14.40;;
5060;SDS011;2549;52.128;21.068;2024-03-02T07:55:36;27.10;;;14.10;;
5060;SDS011;2549;52.128;21.068;2024-03-02T07:58:03;28.73;;;14.23;;
5060;SDS011;2549;52.128;21.068;2024-03-02T08:00:30;27.80;;;13.60;;
5060;SDS011;2549;52.128;21.068;2024-03-02T08:02:57;23.53;;;12.73;;
5060;SDS011;2549;52.128;21.068;2024-03-02T08:05:25;25.90;;;13.98;;
5060;SDS011;2549;52.128;21.068;2024-03-02T08:07:51;28.00;;;14.37;;
5060;SDS011;2549;52.128;21.068;2024-03-02T08:10:19;27.63;;;14.37;;
5060;SDS011;2549;52.128;21.068;2024-03-02T08:12:46;22.07;;;12.67;;
5060;SDS011;2549;52.128;21.068;2024-03-02T08:15:13;22.60;;;13.57;;
5060;SDS011;2549;52.128;21.068;2024-03-02T08:17:40;30.07;;;14.90;;
5060;SDS011;2549;52.128;21.068;2024-03-02T08:20:16;27.63;;;14.47;;
5060;SDS011;2549;52.128;21.068;2024-03-02T08:22:43;26.35;;;13.77;;
5060;SDS011;2549;52.128;21.068;2024-03-02T08:25:11;28.05;;;14.70;;
5060;SDS011;2549;52.128;21.068;2024-03-02T08:27:39;26.70;;;14.70;;
5060;SDS011;2549;52.128;21.068;2024-03-02T08:30:06;28.93;;;14.70;;
5060;SDS011;2549;52.128;21.068;2024-03-02T08:32:34;32.63;;;13.73;;
5060;SDS011;2549;52.128;21.068;2024-03-02T08:35:01;25.90;;;14.27;;
5060;SDS011;2549;52.128;21.068;2024-03-02T08:37:28;31.02;;;14.80;;
5060;SDS011;2549;52.128;21.068;2024-03-02T08:39:55;29.40;;;14.82;;
5060;SDS011;2549;52.128;21.068;2024-03-02T08:42:22;24.87;;;13.70;;
5060;SDS011;2549;52.128;21.068;2024-03-02T08:44:49;25.13;;;14.10;;
5060;SDS011;2549;52.128;21.068;2024-03-02T08:47:16;26.07;;;13.83;;
5060;SDS011;2549;52.128;21.068;2024-03-02T08:49:43;28.50;;;14.20;;
5060;SDS011;2549;52.128;21.068;2024-03-02T08:52:10;24.63;;;13.60;;
5060;SDS011;2549;52.128;21.068;2024-03-02T08:54:37;25.15;;;14.23;;
5060;SDS011;2549;52.128;21.068;2024-03-02T08:57:05;27.80;;;14.37;;
5060;SDS011;2549;52.128;21.068;2024-03-02T08:59:32;24.50;;;14.77;;
5060;SDS011;2549;52.128;21.068;2024-03-02T09:01:59;36.37;;;14.63;;
5060;SDS011;2549;52.128;21.068;2024-03-02T09:04:26;33.30;;;14.07;;
5060;SDS011;2549;52.128;21.068;2024-03-02T09:06:58;28.73;;;14.10;;
5060;SDS011;2549;52.128;21.068;2024-03-02T09:09:26;36.30;;;15.30;;
5060;SDS011;2549;52.128;21.068;2024-03-02T09:11:52;26.50;;;13.73;;
5060;SDS011;2549;52.128;21.068;2024-03-02T09:14:24;25.98;;;13.52;;
5060;SDS011;2549;52.128;21.068;2024-03-02T09:16:51;24.80;;;13.37;;
5060;SDS011;2549;52.128;21.068;2024-03-02T09:19:18;27.03;;;13.77;;
5060;SDS011;2549;52.128;21.068;2024-03-02T09:21:45;25.13;;;12.90;;
5060;SDS011;2549;52.128;21.068;2024-03-02T09:24:12;33.40;;;14.10;;
5060;SDS011;2549;52.128;21.068;2024-03-02T09:26:43;28.40;;;14.47;;
5060;SDS011;2549;52.128;21.068;2024-03-02T09:29:10;25.40;;;14.30;;
5060;SDS011;2549;52.128;21.068;2024-03-02T09:31:41;27.00;;;14.53;;
5060;SDS011;2549;52.128;21.068;2024-03-02T09:34:08;22.30;;;13.37;;
5060;SDS011;2549;52.128;21.068;2024-03-02T09:36:35;25.30;;;13.80;;
5060;SDS011;2549;52.128;21.068;2024-03-02T09:39:02;23.33;;;13.93;;
5060;SDS011;2549;52.128;21.068;2024-03-02T09:41:30;27.17;;;14.20;;
5060;SDS011;2549;52.128;21.068;2024-03-02T09:43:59;29.33;;;14.30;;
5060;SDS011;2549;52.128;21.068;2024-03-02T09:46:27;25.20;;;12.77;;
5060;SDS011;2549;52.128;21.068;2024-03-02T09:48:55;26.83;;;14.20;;
5060;SDS011;2549;52.128;21.068;2024-03-02T09:51:22;27.07;;;14.83;;
5060;SDS011;2549;52.128;21.068;2024-03-02T09:53:50;22.57;;;13.27;;
5060;SDS011;2549;52.128;21.068;2024-03-02T09:56:17;32.97;;;14.10;;
5060;SDS011;2549;52.128;21.068;2024-03-02T09:58:47;24.17;;;13.27;;
5060;SDS011;2549;52.128;21.068;2024-03-02T10:01:14;26.43;;;14.57;;
5060;SDS011;2549;52.128;21.068;2024-03-02T10:03:41;26.13;;;13.60;;
5060;SDS011;2549;52.128;21.068;2024-03-02T10:06:30;31.93;;;15.53;;
5060;SDS011;2549;52.128;21.068;2024-03-02T10:08:57;24.57;;;13.40;;
5060;SDS011;2549;52.128;21.068;2024-03-02T10:11:31;25.07;;;13.40;;
5060;SDS011;2549;52.128;21.068;2024-03-02T10:14:10;25.23;;;13.83;;
5060;SDS011;2549;52.128;21.068;2024-03-02T10:16:38;29.30;;;14.10;;
5060;SDS011;2549;52.128;21.068;2024-03-02T10:19:19;37.03;;;14.90;;
5060;SDS011;2549;52.128;21.068;2024-03-02T10:21:48;29.27;;;14.10;;
5060;SDS011;2549;52.128;21.068;2024-03-02T10:24:20;32.30;;;14.20;;
5060;SDS011;2549;52.128;21.068;2024-03-02T10:26:48;28.27;;;15.33;;
5060;SDS011;2549;52.128;21.068;2024-03-02T10:29:15;23.30;;;12.70;;
5060;SDS011;2549;52.128;21.068;2024-03-02T10:31:43;26.20;;;12.90;;
5060;SDS011;2549;52.128;21.068;2024-03-02T10:34:14;29.20;;;15.20;;
5060;SDS011;2549;52.128;21.068;2024-03-02T10:36:43;28.53;;;14.10;;
5060;SDS011;2549;52.128;21.068;2024-03-02T10:39:12;23.67;;;13.90;;
5060;SDS011;2549;52.128;21.068;2024-03-02T10:41:41;23.53;;;14.27;;
5060;SDS011;2549;52.128;21.068;2024-03-02T10:44:08;26.60;;;13.53;;
5060;SDS011;2549;52.128;21.068;2024-03-02T10:46:36;29.30;;;14.80;;
5060;SDS011;2549;52.128;21.068;2024-03-02T10:49:05;24.33;;;14.10;;
5060;SDS011;2549;52.128;21.068;2024-03-02T10:51:34;25.53;;;14.10;;
5060;SDS011;2549;52.128;21.068;2024-03-02T10:54:03;30.60;;;15.37;;
5060;SDS011;2549;52.128;21.068;2024-03-02T10:56:37;31.20;;;14.80;;
5060;SDS011;2549;52.128;21.068;2024-03-02T11:01:38;26.80;;;13.73;;
5060;SDS011;2549;52.128;21.068;2024-03-02T11:04:07;28.33;;;14.80;;
5060;SDS011;2549;52.128;21.068;2024-03-02T11:06:35;29.20;;;14.87;;
5060;SDS011;2549;52.128;21.068;2024-03-02T11:09:05;29.77;;;16.73;;
5060;SDS011;2549;52.128;21.068;2024-03-02T11:11:40;31.67;;;17.17;;
5060;SDS011;2549;52.128;21.068;2024-03-02T11:14:13;31.43;;;15.07;;
5060;SDS011;2549;52.128;21.068;2024-03-02T11:16:43;29.57;;;15.90;;
5060;SDS011;2549;52.128;21.068;2024-03-02T11:19:14;31.23;;;16.10;;
5060;SDS011;2549;52.128;21.068;2024-03-02T11:21:43;29.90;;;16.50;;
5060;SDS011;2549;52.128;21.068;2024-03-02T11:26:53;30.07;;;16.90;;
5060;SDS011;2549;52.128;21.068;2024-03-02T11:32:06;36.60;;;16.90;;
5060;SDS011;2549;52.128;21.068;2024-03-02T11:34:45;35.43;;;17.50;;
5060;SDS011;2549;52.128;21.068;2024-03-02T11:37:13;38.93;;;18.23;;
5060;SDS011;2549;52.128;21.068;2024-03-02T11:39:40;36.93;;;18.77;;
5060;SDS011;2549;52.128;21.068;2024-03-02T11:42:11;37.57;;;19.57;;
5060;SDS011;2549;52.128;21.068;2024-03-02T11:44:42;33.90;;;18.83;;
5060;SDS011;2549;52.128;21.068;2024-03-02T11:47:12;34.83;;;20.67;;
5060;SDS011;2549;52.128;21.068;2024-03-02T11:49:42;34.20;;;19.47;;
5060;SDS011;2549;52.128;21.068;2024-03-02T11:52:14;34.90;;;20.37;;
5060;SDS011;2549;52.128;21.068;2024-03-02T11:54:44;33.97;;;19.57;;
5060;SDS011;2549;52.128;21.068;2024-03-02T11:57:16;38.57;;;19.90;;
5060;SDS011;2549;52.128;21.068;2024-03-02T11:59:45;34.50;;;21.20;;
5060;SDS011;2549;52.128;21.068;2024-03-02T12:02:16;37.67;;;20.70;;
5060;SDS011;2549;52.128;21.068;2024-03-02T12:04:45;40.03;;;19.63;;
5060;SDS011;2549;52.128;21.068;2024-03-02T12:07:18;40.70;;;20.60;;
5060;SDS011;2549;52.128;21.068;2024-03-02T12:09:47;36.70;;;20.67;;
5060;SDS011;2549;52.128;21.068;2024-03-02T12:12:14;39.20;;;21.63;;
5060;SDS011;2549;52.128;21.068;2024-03-02T12:14:50;38.57;;;21.60;;
5060;SDS011;2549;52.128;21.068;2024-03-02T12:17:18;37.70;;;20.90;;
5060;SDS011;2549;52.128;21.068;2024-03-02T12:19:45;38.50;;;21.90;;
5060;SDS011;2549;52.128;21.068;2024-03-02T12:22:12;38.90;;;20.90;;
5060;SDS011;2549;52.128;21.068;2024-03-02T12:24:39;35.97;;;21.00;;
5060;SDS011;2549;52.128;21.068;2024-03-02T12:27:08;44.83;;;21.47;;
5060;SDS011;2549;52.128;21.068;2024-03-02T12:29:35;42.97;;;20.57;;
5060;SDS011;2549;52.128;21.068;2024-03-02T12:32:02;33.43;;;20.43;;
5060;SDS011;2549;52.128;21.068;2024-03-02T12:34:29;35.67;;;20.73;;
5060;SDS011;2549;52.128;21.068;2024-03-02T12:36:56;34.10;;;20.40;;
5060;SDS011;2549;52.128;21.068;2024-03-02T12:39:23;37.40;;;21.97;;
5060;SDS011;2549;52.128;21.068;2024-03-02T12:41:50;40.10;;;20.60;;
5060;SDS011;2549;52.128;21.068;2024-03-02T12:44:18;35.10;;;19.70;;
5060;SDS011;2549;52.128;21.068;2024-03-02T12:46:45;37.30;;;18.87;;
5060;SDS011;2549;52.128;21.068;2024-03-02T12:49:13;32.33;;;17.80;;
5060;SDS011;2549;52.128;21.068;2024-03-02T12:51:44;39.70;;;20.30;;
5060;SDS011;2549;52.128;21.068;2024-03-02T12:54:13;35.20;;;19.33;;
5060;SDS011;2549;52.128;21.068;2024-03-02T12:56:41;34.70;;;19.60;;
5060;SDS011;2549;52.128;21.068;2024-03-02T12:59:18;31.63;;;18.57;;
5060;SDS011;2549;52.128;21.068;2024-03-02T13:01:54;31.67;;;19.30;;
5060;SDS011;2549;52.128;21.068;2024-03-02T13:04:25;34.67;;;19.43;;
5060;SDS011;2549;52.128;21.068;2024-03-02T13:06:55;40.60;;;21.07;;
5060;SDS011;2549;52.128;21.068;2024-03-02T13:09:25;39.27;;;19.60;;
5060;SDS011;2549;52.128;21.068;2024-03-02T13:11:53;31.80;;;20.00;;
5060;SDS011;2549;52.128;21.068;2024-03-02T13:14:21;40.03;;;19.60;;
5060;SDS011;2549;52.128;21.068;2024-03-02T13:16:51;31.33;;;19.37;;
5060;SDS011;2549;52.128;21.068;2024-03-02T13:19:19;31.73;;;19.87;;
5060;SDS011;2549;52.128;21.068;2024-03-02T13:21:46;32.97;;;20.17;;
5060;SDS011;2549;52.128;21.068;2024-03-02T13:24:13;46.13;;;20.30;;
5060;SDS011;2549;52.128;21.068;2024-03-02T13:26:40;31.87;;;18.87;;
5060;SDS011;2549;52.128;21.068;2024-03-02T13:29:07;32.73;;;20.00;;
5060;SDS011;2549;52.128;21.068;2024-03-02T13:31:35;32.97;;;22.07;;
5060;SDS011;2549;52.128;21.068;2024-03-02T13:34:02;38.53;;;20.90;;
5060;SDS011;2549;52.128;21.068;2024-03-02T13:36:29;43.20;;;21.27;;
5060;SDS011;2549;52.128;21.068;2024-03-02T13:38:56;39.03;;;21.23;;
5060;SDS011;2549;52.128;21.068;2024-03-02T13:41:24;33.57;;;19.20;;
5060;SDS011;2549;52.128;21.068;2024-03-02T13:43:51;43.60;;;20.83;;
5060;SDS011;2549;52.128;21.068;2024-03-02T13:46:19;31.90;;;20.40;;
5060;SDS011;2549;52.128;21.068;2024-03-02T13:48:47;32.97;;;19.63;;
5060;SDS011;2549;52.128;21.068;2024-03-02T13:51:14;40.13;;;22.20;;
5060;SDS011;2549;52.128;21.068;2024-03-02T13:53:41;40.13;;;21.00;;
5060;SDS011;2549;52.128;21.068;2024-03-02T13:56:08;39.07;;;21.90;;
5060;SDS011;2549;52.128;21.068;2024-03-02T13:58:35;36.40;;;21.13;;
5060;SDS011;2549;52.128;21.068;2024-03-02T14:01:02;33.50;;;20.27;;
5060;SDS011;2549;52.128;21.068;2024-03-02T14:03:31;33.83;;;19.50;;
5060;SDS011;2549;52.128;21.068;2024-03-02T14:05:58;40.57;;;21.60;;
5060;SDS011;2549;52.128;21.068;2024-03-02T14:08:25;34.10;;;20.47;;
5060;SDS011;2549;52.128;21.068;2024-03-02T14:10:52;41.50;;;22.43;;
5060;SDS011;2549;52.128;21.068;2024-03-02T14:13:19;48.43;;;22.50;;
5060;SDS011;2549;52.128;21.068;2024-03-02T14:15:46;43.23;;;22.03;;
5060;SDS011;2549;52.128;21.068;2024-03-02T14:18:13;34.40;;;20.50;;
5060;SDS011;2549;52.128;21.068;2024-03-02T14:20:40;38.37;;;22.07;;
5060;SDS011;2549;52.128;21.068;2024-03-02T14:23:09;40.53;;;21.03;;
5060;SDS011;2549;52.128;21.068;2024-03-02T14:25:36;41.97;;;21.27;;
5060;SDS011;2549;52.128;21.068;2024-03-02T14:28:03;38.30;;;20.60;;
5060;SDS011;2549;52.128;21.068;2024-03-02T14:30:33;36.00;;;19.40;;
5060;SDS011;2549;52.128;21.068;2024-03-02T14:33:00;36.73;;;19.77;;
5060;SDS011;2549;52.128;21.068;2024-03-02T14:35:27;41.10;;;20.30;;
5060;SDS011;2549;52.128;21.068;2024-03-02T14:37:55;34.10;;;19.87;;
5060;SDS011;2549;52.128;21.068;2024-03-02T14:40:23;39.47;;;21.40;;
5060;SDS011;2549;52.128;21.068;2024-03-02T14:42:53;36.97;;;21.37;;
5060;SDS011;2549;52.128;21.068;2024-03-02T14:45:20;46.20;;;21.70;;
5060;SDS011;2549;52.128;21.068;2024-03-02T14:47:47;35.70;;;20.57;;
5060;SDS011;2549;52.128;21.068;2024-03-02T14:50:14;41.97;;;23.13;;